createdAt,value
2017-10-11T00:00:36.056Z,1013.30
2017-10-11T00:01:35.892Z,1013.30
2017-10-11T00:02:35.976Z,1013.27
2017-10-11T00:03:35.841Z,1013.30
2017-10-11T00:04:35.881Z,1013.33
2017-10-11T00:05:35.793Z,1013.37
2017-10-11T00:06:35.892Z,1013.38
2017-10-11T00:07:35.749Z,1013.34
2017-10-11T00:08:35.804Z,1013.38
2017-10-11T00:09:35.713Z,1013.40
2017-10-11T00:10:35.822Z,1013.35
2017-10-11T00:11:35.653Z,1013.34
2017-10-11T00:12:35.733Z,1013.37
2017-10-11T00:13:35.601Z,1013.36
2017-10-11T00:14:35.640Z,1013.38
2017-10-11T00:15:35.554Z,1013.40
2017-10-11T00:16:35.655Z,1013.32
2017-10-11T00:17:35.503Z,1013.32
2017-10-11T00:18:35.565Z,1013.25
2017-10-11T00:19:35.498Z,1013.32
2017-10-11T00:20:35.582Z,1013.39
2017-10-11T00:21:35.407Z,1013.35
2017-10-11T00:22:35.494Z,1013.29
2017-10-11T00:23:35.356Z,1013.32
2017-10-11T00:24:35.402Z,1013.36
2017-10-11T00:25:35.315Z,1013.31
2017-10-11T00:26:35.418Z,1013.36
2017-10-11T00:27:35.263Z,1013.31
2017-10-11T00:28:35.335Z,1013.27
2017-10-11T00:29:35.209Z,1013.23
2017-10-11T00:30:35.350Z,1013.29
2017-10-11T00:31:35.164Z,1013.24
2017-10-11T00:32:35.262Z,1013.24
2017-10-11T00:33:35.114Z,1013.21
2017-10-11T00:34:35.166Z,1013.20
2017-10-11T00:35:35.066Z,1013.25
2017-10-11T00:36:35.179Z,1013.24
2017-10-11T00:37:35.022Z,1013.20
2017-10-11T00:38:35.090Z,1013.22
2017-10-11T00:39:34.971Z,1013.20
2017-10-11T00:40:35.105Z,1013.17
2017-10-11T00:41:34.923Z,1013.13
2017-10-11T00:42:35.019Z,1013.09
2017-10-11T00:43:34.874Z,1013.16
2017-10-11T00:44:35.033Z,1013.10
2017-10-11T00:45:34.827Z,1013.14
2017-10-11T00:46:34.941Z,1013.15
2017-10-11T00:47:34.779Z,1013.16
2017-10-11T00:48:34.856Z,1013.13
2017-10-11T00:49:34.734Z,1013.18
2017-10-11T00:50:34.868Z,1013.15
2017-10-11T00:51:34.680Z,1013.14
2017-10-11T00:52:34.781Z,1013.15
2017-10-11T00:53:34.633Z,1013.16
2017-10-11T00:54:34.794Z,1013.14
2017-10-11T00:55:34.585Z,1013.11
2017-10-11T00:56:34.707Z,1013.17
2017-10-11T00:57:34.537Z,1013.15
2017-10-11T00:58:34.621Z,1013.16
2017-10-11T00:59:34.493Z,1013.10
2017-10-11T01:00:34.630Z,1013.14
2017-10-11T01:01:34.446Z,1013.11
2017-10-11T01:02:34.545Z,1013.07
2017-10-11T01:03:34.390Z,1013.10
2017-10-11T01:04:34.564Z,1013.08
2017-10-11T01:05:34.385Z,1013.11
2017-10-11T01:06:34.465Z,1013.10
2017-10-11T01:07:34.304Z,1013.04
2017-10-11T01:08:34.379Z,1013.04
2017-10-11T01:09:34.245Z,1013.07
2017-10-11T01:10:34.389Z,1013.01
2017-10-11T01:11:34.202Z,1013.09
2017-10-11T01:12:34.305Z,1013.07
2017-10-11T01:13:34.150Z,1013.08
2017-10-11T01:14:34.321Z,1013.05
2017-10-11T01:15:34.103Z,1013.13
2017-10-11T01:16:34.231Z,1013.10
2017-10-11T01:17:34.059Z,1013.11
2017-10-11T01:18:34.142Z,1013.07
2017-10-11T01:19:34.005Z,1013.09
2017-10-11T01:20:34.155Z,1013.06
2017-10-11T01:21:33.959Z,1013.07
2017-10-11T01:22:34.094Z,1013.05
2017-10-11T01:23:33.913Z,1013.07
2017-10-11T01:24:34.106Z,1013.02
2017-10-11T01:25:33.865Z,1013.04
2017-10-11T01:26:33.994Z,1013.02
2017-10-11T01:27:33.818Z,1013.03
2017-10-11T01:28:34.008Z,1012.98
2017-10-11T01:29:33.765Z,1013.02
2017-10-11T01:30:33.917Z,1012.96
2017-10-11T01:31:33.721Z,1013.01
2017-10-11T01:32:33.828Z,1013.00
2017-10-11T01:33:33.670Z,1013.02
2017-10-11T01:34:33.844Z,1013.07
2017-10-11T01:35:33.622Z,1013.07
2017-10-11T01:36:33.758Z,1013.06
2017-10-11T01:37:33.572Z,1013.07
2017-10-11T01:38:33.767Z,1013.05
2017-10-11T01:39:33.527Z,1013.08
2017-10-11T01:40:33.681Z,1013.07
2017-10-11T01:41:33.476Z,1013.00
2017-10-11T01:42:33.593Z,1013.08
2017-10-11T01:43:33.433Z,1013.02
2017-10-11T01:44:33.503Z,1013.04
2017-10-11T01:45:33.379Z,1013.05
2017-10-11T01:46:33.415Z,1013.06
2017-10-11T01:47:33.336Z,1013.09
2017-10-11T01:48:33.427Z,1013.07
2017-10-11T01:49:33.284Z,1013.12
2017-10-11T01:50:33.342Z,1013.08
2017-10-11T01:51:33.236Z,1013.05
2017-10-11T01:52:33.250Z,1013.06
2017-10-11T01:53:33.192Z,1013.01
2017-10-11T01:54:33.266Z,1013.02
2017-10-11T01:55:33.141Z,1013.15
2017-10-11T01:56:33.175Z,1013.13
2017-10-11T01:57:33.094Z,1013.04
2017-10-11T01:58:33.190Z,1013.07
2017-10-11T01:59:33.047Z,1013.07
2017-10-11T02:00:33.102Z,1013.07
2017-10-11T02:01:32.995Z,1013.09
2017-10-11T02:02:33.013Z,1013.04
2017-10-11T02:03:32.952Z,1013.05
2017-10-11T02:04:33.027Z,1012.98
2017-10-11T02:05:32.902Z,1012.97
2017-10-11T02:06:32.939Z,1013.03
2017-10-11T02:07:32.851Z,1013.02
2017-10-11T02:08:32.953Z,1013.03
2017-10-11T02:09:32.804Z,1013.02
2017-10-11T02:10:32.864Z,1012.99
2017-10-11T02:11:32.754Z,1012.99
2017-10-11T02:12:32.776Z,1012.99
2017-10-11T02:13:32.706Z,1012.98
2017-10-11T02:14:32.789Z,1012.97
2017-10-11T02:15:32.658Z,1012.99
2017-10-11T02:16:32.699Z,1013.01
2017-10-11T02:17:32.606Z,1013.08
2017-10-11T02:18:32.724Z,1013.01
2017-10-11T02:19:32.559Z,1013.02
2017-10-11T02:20:32.627Z,1013.04
2017-10-11T02:21:32.512Z,1013.00
2017-10-11T02:22:32.539Z,1013.03
2017-10-11T02:23:32.465Z,1013.04
2017-10-11T02:24:32.553Z,1013.01
2017-10-11T02:25:32.413Z,1013.07
2017-10-11T02:26:32.462Z,1013.06
2017-10-11T02:27:32.361Z,1013.12
2017-10-11T02:28:32.370Z,1013.06
2017-10-11T02:29:32.311Z,1013.11
2017-10-11T02:30:32.389Z,1013.11
2017-10-11T02:31:32.264Z,1013.11
2017-10-11T02:32:32.298Z,1013.15
2017-10-11T02:33:32.215Z,1013.11
2017-10-11T02:34:32.315Z,1013.10
2017-10-11T02:35:32.167Z,1013.10
2017-10-11T02:36:32.225Z,1013.15
2017-10-11T02:37:32.119Z,1013.16
2017-10-11T02:38:32.239Z,1013.10
2017-10-11T02:39:32.070Z,1013.15
2017-10-11T02:40:32.152Z,1013.07
2017-10-11T02:41:32.022Z,1013.09
2017-10-11T02:42:32.065Z,1013.02
2017-10-11T02:43:31.973Z,1013.07
2017-10-11T02:44:32.080Z,1013.05
2017-10-11T02:45:31.919Z,1013.06
2017-10-11T02:46:31.987Z,1013.04
2017-10-11T02:47:31.882Z,1013.12
2017-10-11T02:48:32.002Z,1013.07
2017-10-11T02:49:31.831Z,1013.12
2017-10-11T02:50:31.911Z,1013.10
2017-10-11T02:51:31.784Z,1013.06
2017-10-11T02:52:31.825Z,1013.10
2017-10-11T02:53:31.728Z,1013.13
2017-10-11T02:54:31.843Z,1013.15
2017-10-11T02:55:31.677Z,1013.11
2017-10-11T02:56:31.751Z,1013.06
2017-10-11T02:57:31.628Z,1013.04
2017-10-11T02:58:31.763Z,1013.05
2017-10-11T02:59:31.582Z,1013.07
2017-10-11T03:00:31.676Z,1013.09
2017-10-11T03:01:31.531Z,1013.07
2017-10-11T03:02:31.588Z,1013.14
2017-10-11T03:03:31.484Z,1013.12
2017-10-11T03:04:31.598Z,1013.07
2017-10-11T03:05:31.429Z,1013.05
2017-10-11T03:06:31.513Z,1013.05
2017-10-11T03:07:31.382Z,1013.05
2017-10-11T03:08:31.525Z,1013.05
2017-10-11T03:09:31.334Z,1013.08
2017-10-11T03:10:31.438Z,1013.10
2017-10-11T03:11:31.283Z,1013.03
2017-10-11T03:12:31.350Z,1013.08
2017-10-11T03:13:31.236Z,1013.09
2017-10-11T03:14:31.364Z,1013.06
2017-10-11T03:15:31.189Z,1013.07
2017-10-11T03:16:31.276Z,1013.08
2017-10-11T03:17:31.139Z,1013.08
2017-10-11T03:18:31.288Z,1013.06
2017-10-11T03:19:31.090Z,1013.08
2017-10-11T03:20:31.199Z,1013.05
2017-10-11T03:21:31.042Z,1013.04
2017-10-11T03:22:31.109Z,1013.04
2017-10-11T03:23:30.999Z,1013.03
2017-10-11T03:24:31.125Z,1013.03
2017-10-11T03:25:30.942Z,1012.94
2017-10-11T03:26:31.038Z,1013.01
2017-10-11T03:27:30.894Z,1012.99
2017-10-11T03:28:31.056Z,1012.94
2017-10-11T03:29:30.842Z,1012.98
2017-10-11T03:30:30.964Z,1013.01
2017-10-11T03:31:30.794Z,1012.96
2017-10-11T03:32:30.877Z,1012.99
2017-10-11T03:33:30.760Z,1013.02
2017-10-11T03:34:30.888Z,1013.00
2017-10-11T03:35:30.699Z,1012.95
2017-10-11T03:36:30.800Z,1012.99
2017-10-11T03:37:30.655Z,1012.96
2017-10-11T03:38:30.811Z,1013.04
2017-10-11T03:39:30.599Z,1013.01
2017-10-11T03:40:30.723Z,1013.01
2017-10-11T03:41:30.549Z,1013.00
2017-10-11T03:42:30.637Z,1013.03
2017-10-11T03:43:30.501Z,1013.00
2017-10-11T03:44:30.644Z,1012.98
2017-10-11T03:45:30.452Z,1012.92
2017-10-11T03:46:30.565Z,1012.97
2017-10-11T03:47:30.402Z,1012.96
2017-10-11T03:48:30.573Z,1012.94
2017-10-11T03:49:30.354Z,1012.92
2017-10-11T03:50:30.486Z,1012.93
2017-10-11T03:51:30.329Z,1012.89
2017-10-11T03:52:30.399Z,1012.87
2017-10-11T03:53:30.258Z,1012.86
2017-10-11T03:54:30.415Z,1012.78
2017-10-11T03:55:30.209Z,1012.85
2017-10-11T03:56:30.324Z,1012.88
2017-10-11T03:57:30.159Z,1012.86
2017-10-11T03:58:30.339Z,1012.86
2017-10-11T03:59:30.106Z,1012.81
2017-10-11T04:00:30.249Z,1012.87
2017-10-11T04:01:30.061Z,1012.88
2017-10-11T04:02:30.160Z,1012.80
2017-10-11T04:03:30.019Z,1012.81
2017-10-11T04:04:30.172Z,1012.77
2017-10-11T04:05:29.961Z,1012.72
2017-10-11T04:06:30.084Z,1012.75
2017-10-11T04:07:29.915Z,1012.69
2017-10-11T04:08:29.998Z,1012.79
2017-10-11T04:09:29.870Z,1012.73
2017-10-11T04:10:29.906Z,1012.81
2017-10-11T04:11:29.819Z,1012.77
2017-10-11T04:12:29.822Z,1012.72
2017-10-11T04:13:29.764Z,1012.69
2017-10-11T04:14:29.838Z,1012.72
2017-10-11T04:15:29.720Z,1012.70
2017-10-11T04:16:29.744Z,1012.72
2017-10-11T04:17:29.668Z,1012.70
2017-10-11T04:18:29.762Z,1012.73
2017-10-11T04:19:29.621Z,1012.75
2017-10-11T04:20:29.671Z,1012.67
2017-10-11T04:21:29.573Z,1012.71
2017-10-11T04:22:29.581Z,1012.73
2017-10-11T04:23:29.521Z,1012.73
2017-10-11T04:24:29.594Z,1012.68
2017-10-11T04:25:29.480Z,1012.71
2017-10-11T04:26:29.510Z,1012.62
2017-10-11T04:27:29.425Z,1012.70
2017-10-11T04:28:29.521Z,1012.69
2017-10-11T04:29:29.375Z,1012.71
2017-10-11T04:30:29.429Z,1012.75
2017-10-11T04:31:29.329Z,1012.74
2017-10-11T04:32:29.345Z,1012.68
2017-10-11T04:33:29.278Z,1012.72
2017-10-11T04:34:29.359Z,1012.78
2017-10-11T04:35:29.227Z,1012.75
2017-10-11T04:36:29.271Z,1012.70
2017-10-11T04:37:29.185Z,1012.73
2017-10-11T04:38:29.282Z,1012.69
2017-10-11T04:39:29.135Z,1012.69
2017-10-11T04:40:29.195Z,1012.64
2017-10-11T04:41:29.083Z,1012.62
2017-10-11T04:42:29.107Z,1012.65
2017-10-11T04:43:29.035Z,1012.65
2017-10-11T04:44:29.123Z,1012.63
2017-10-11T04:45:28.989Z,1012.68
2017-10-11T04:46:29.031Z,1012.71
2017-10-11T04:47:28.936Z,1012.70
2017-10-11T04:48:29.047Z,1012.65
2017-10-11T04:49:28.885Z,1012.71
2017-10-11T04:50:28.961Z,1012.63
2017-10-11T04:51:28.839Z,1012.69
2017-10-11T04:52:28.866Z,1012.72
2017-10-11T04:53:28.795Z,1012.74
2017-10-11T04:54:28.881Z,1012.73
2017-10-11T04:55:28.742Z,1012.67
2017-10-11T04:56:28.794Z,1012.75
2017-10-11T04:57:28.693Z,1012.71
2017-10-11T04:58:28.806Z,1012.73
2017-10-11T04:59:28.641Z,1012.75
2017-10-11T05:00:28.717Z,1012.67
2017-10-11T05:01:28.596Z,1012.71
2017-10-11T05:02:28.631Z,1012.71
2017-10-11T05:03:28.548Z,1012.74
2017-10-11T05:04:28.646Z,1012.73
2017-10-11T05:05:28.499Z,1012.67
2017-10-11T05:06:28.557Z,1012.66
2017-10-11T05:07:28.451Z,1012.67
2017-10-11T05:08:28.576Z,1012.63
2017-10-11T05:09:28.398Z,1012.60
2017-10-11T05:10:28.486Z,1012.71
2017-10-11T05:11:28.353Z,1012.71
2017-10-11T05:12:28.505Z,1012.67
2017-10-11T05:13:28.302Z,1012.65
2017-10-11T05:14:28.421Z,1012.63
2017-10-11T05:15:28.254Z,1012.65
2017-10-11T05:16:28.313Z,1012.70
2017-10-11T05:17:28.207Z,1012.64
2017-10-11T05:18:28.336Z,1012.72
2017-10-11T05:19:28.158Z,1012.68
2017-10-11T05:20:28.249Z,1012.69
2017-10-11T05:21:28.109Z,1012.76
2017-10-11T05:22:28.260Z,1012.69
2017-10-11T05:23:28.063Z,1012.72
2017-10-11T05:24:28.174Z,1012.73
2017-10-11T05:25:28.041Z,1012.74
2017-10-11T05:26:28.083Z,1012.70
2017-10-11T05:27:27.966Z,1012.73
2017-10-11T05:28:28.098Z,1012.70
2017-10-11T05:29:27.915Z,1012.74
2017-10-11T05:30:28.005Z,1012.71
2017-10-11T05:31:27.869Z,1012.72
2017-10-11T05:32:28.022Z,1012.72
2017-10-11T05:33:27.824Z,1012.74
2017-10-11T05:34:27.933Z,1012.78
2017-10-11T05:35:27.774Z,1012.71
2017-10-11T05:36:27.843Z,1012.78
2017-10-11T05:37:27.724Z,1012.79
2017-10-11T05:38:27.858Z,1012.77
2017-10-11T05:39:27.673Z,1012.86
2017-10-11T05:40:27.769Z,1012.81
2017-10-11T05:41:27.634Z,1012.78
2017-10-11T05:42:27.784Z,1012.84
2017-10-11T05:43:27.577Z,1012.78
2017-10-11T05:44:27.694Z,1012.78
2017-10-11T05:45:27.527Z,1012.82
2017-10-11T05:46:27.605Z,1012.76
2017-10-11T05:47:27.479Z,1012.84
2017-10-11T05:48:27.618Z,1012.76
2017-10-11T05:49:27.429Z,1012.80
2017-10-11T05:50:27.531Z,1012.81
2017-10-11T05:51:27.383Z,1012.82
2017-10-11T05:52:27.542Z,1012.79
2017-10-11T05:53:27.332Z,1012.82
2017-10-11T05:54:27.457Z,1012.78
2017-10-11T05:55:27.288Z,1012.80
2017-10-11T05:56:27.368Z,1012.80
2017-10-11T05:57:27.234Z,1012.78
2017-10-11T05:58:27.382Z,1012.78
2017-10-11T05:59:27.190Z,1012.80
2017-10-11T06:00:27.295Z,1012.79
2017-10-11T06:01:27.141Z,1012.83
2017-10-11T06:02:27.305Z,1012.83
2017-10-11T06:03:27.096Z,1012.82
2017-10-11T06:04:27.215Z,1012.81
2017-10-11T06:05:27.044Z,1012.80
2017-10-11T06:06:27.128Z,1012.80
2017-10-11T06:07:26.996Z,1012.82
2017-10-11T06:08:27.141Z,1012.84
2017-10-11T06:09:26.953Z,1012.82
2017-10-11T06:10:27.052Z,1012.85
2017-10-11T06:11:26.902Z,1012.92
2017-10-11T06:12:26.965Z,1012.85
2017-10-11T06:13:26.851Z,1012.87
2017-10-11T06:14:26.994Z,1012.85
2017-10-11T06:15:26.803Z,1012.91
2017-10-11T06:16:26.991Z,1012.91
2017-10-11T06:17:26.756Z,1012.89
2017-10-11T06:18:26.907Z,1012.91
2017-10-11T06:19:26.705Z,1012.94
2017-10-11T06:20:26.815Z,1013.00
2017-10-11T06:21:26.662Z,1012.94
2017-10-11T06:22:26.828Z,1012.83
2017-10-11T06:23:26.618Z,1012.95
2017-10-11T06:24:26.743Z,1012.95
2017-10-11T06:25:26.563Z,1012.96
2017-10-11T06:26:26.758Z,1012.98
2017-10-11T06:27:26.515Z,1012.95
2017-10-11T06:28:26.668Z,1013.00
2017-10-11T06:29:26.470Z,1013.02
2017-10-11T06:30:26.573Z,1012.96
2017-10-11T06:31:26.421Z,1013.02
2017-10-11T06:32:26.590Z,1013.02
2017-10-11T06:33:26.370Z,1013.01
2017-10-11T06:34:26.400Z,1013.07
2017-10-11T06:35:26.324Z,1013.11
2017-10-11T06:36:26.410Z,1013.03
2017-10-11T06:37:26.278Z,1013.06
2017-10-11T06:38:26.323Z,1013.05
2017-10-11T06:39:26.234Z,1013.00
2017-10-11T06:40:26.248Z,1013.03
2017-10-11T06:41:26.181Z,1013.09
2017-10-11T06:42:26.256Z,1013.07
2017-10-11T06:43:26.136Z,1013.03
2017-10-11T06:44:26.163Z,1013.09
2017-10-11T06:45:26.085Z,1013.05
2017-10-11T06:46:26.174Z,1013.07
2017-10-11T06:47:26.043Z,1013.01
2017-10-11T06:48:26.084Z,1013.04
2017-10-11T06:49:25.986Z,1013.04
2017-10-11T06:50:25.998Z,1013.01
2017-10-11T06:51:25.943Z,1013.02
2017-10-11T06:52:26.010Z,1012.99
2017-10-11T06:53:25.892Z,1012.99
2017-10-11T06:54:25.901Z,1013.09
2017-10-11T06:55:25.843Z,1013.05
2017-10-11T06:56:25.947Z,1012.97
2017-10-11T06:57:25.801Z,1012.99
2017-10-11T06:58:25.823Z,1012.98
2017-10-11T06:59:25.750Z,1012.98
2017-10-11T07:00:25.899Z,1013.04
2017-10-11T07:01:25.705Z,1013.01
2017-10-11T07:02:25.776Z,1013.05
2017-10-11T07:03:25.655Z,1013.06
2017-10-11T07:04:25.683Z,1013.08
2017-10-11T07:05:25.608Z,1013.05
2017-10-11T07:06:25.588Z,1013.08
2017-10-11T07:07:25.603Z,1013.08
2017-10-11T07:08:25.541Z,1013.07
2017-10-11T07:09:25.620Z,1013.07
2017-10-11T07:10:25.518Z,1013.12
2017-10-11T07:11:25.532Z,1013.06
2017-10-11T07:12:25.445Z,1013.12
2017-10-11T07:13:25.417Z,1013.08
2017-10-11T07:14:25.445Z,1013.10
2017-10-11T07:15:25.374Z,1013.13
2017-10-11T07:16:25.459Z,1013.16
2017-10-11T07:17:25.325Z,1013.19
2017-10-11T07:18:25.301Z,1013.10
2017-10-11T07:19:25.276Z,1013.13
2017-10-11T07:20:25.280Z,1013.19
2017-10-11T07:21:25.233Z,1013.16
2017-10-11T07:22:25.295Z,1013.15
2017-10-11T07:23:25.191Z,1013.16
2017-10-11T07:24:25.209Z,1013.22
2017-10-11T07:25:25.176Z,1013.18
2017-10-11T07:26:25.220Z,1013.18
2017-10-11T07:27:25.092Z,1013.15
2017-10-11T07:28:25.133Z,1013.25
2017-10-11T07:29:25.038Z,1013.23
2017-10-11T07:30:25.020Z,1013.26
2017-10-11T07:31:25.051Z,1013.17
2017-10-11T07:32:24.969Z,1013.21
2017-10-11T07:33:24.962Z,1013.25
2017-10-11T07:34:24.926Z,1013.20
2017-10-11T07:35:24.902Z,1013.29
2017-10-11T07:36:24.982Z,1013.21
2017-10-11T07:37:24.850Z,1013.22
2017-10-11T07:38:24.894Z,1013.21
2017-10-11T07:39:24.806Z,1013.22
2017-10-11T07:40:24.811Z,1013.29
2017-10-11T07:41:24.763Z,1013.30
2017-10-11T07:42:24.819Z,1013.25
2017-10-11T07:43:24.721Z,1013.31
2017-10-11T07:44:24.734Z,1013.23
2017-10-11T07:45:24.676Z,1013.25
2017-10-11T07:46:24.749Z,1013.29
2017-10-11T07:47:24.619Z,1013.27
2017-10-11T07:48:24.659Z,1013.29
2017-10-11T07:49:24.571Z,1013.22
2017-10-11T07:50:24.570Z,1013.33
2017-10-11T07:51:24.525Z,1013.35
2017-10-11T07:52:24.583Z,1013.40
2017-10-11T07:53:24.473Z,1013.29
2017-10-11T07:54:24.492Z,1013.31
2017-10-11T07:55:24.437Z,1013.29
2017-10-11T07:56:24.508Z,1013.37
2017-10-11T07:57:24.385Z,1013.34
2017-10-11T07:58:24.421Z,1013.40
2017-10-11T07:59:24.342Z,1013.35
2017-10-11T08:00:24.343Z,1013.36
2017-10-11T08:01:24.292Z,1013.30
2017-10-11T08:02:24.345Z,1013.32
2017-10-11T08:03:24.244Z,1013.30
2017-10-11T08:04:24.257Z,1013.28
2017-10-11T08:05:24.206Z,1013.29
2017-10-11T08:06:24.268Z,1013.27
2017-10-11T08:07:24.160Z,1013.32
2017-10-11T08:08:24.181Z,1013.33
2017-10-11T08:09:24.110Z,1013.35
2017-10-11T08:10:24.197Z,1013.34
2017-10-11T08:11:24.069Z,1013.34
2017-10-11T08:12:24.116Z,1013.35
2017-10-11T08:13:24.014Z,1013.36
2017-10-11T08:14:24.017Z,1013.35
2017-10-11T08:15:23.970Z,1013.32
2017-10-11T08:16:24.029Z,1013.31
2017-10-11T08:17:23.927Z,1013.35
2017-10-11T08:18:23.943Z,1013.40
2017-10-11T08:19:23.882Z,1013.40
2017-10-11T08:20:23.959Z,1013.36
2017-10-11T08:21:23.836Z,1013.34
2017-10-11T08:22:23.868Z,1013.44
2017-10-11T08:23:23.795Z,1013.41
2017-10-11T08:24:23.883Z,1013.43
2017-10-11T08:25:23.743Z,1013.32
2017-10-11T08:26:23.897Z,1013.37
2017-10-11T08:27:23.705Z,1013.42
2017-10-11T08:28:24.833Z,1013.40
2017-10-11T08:29:23.655Z,1013.37
2017-10-11T08:30:23.821Z,1013.38
2017-10-11T08:31:23.608Z,1013.38
2017-10-11T08:32:23.588Z,1013.38
2017-10-11T08:33:23.566Z,1013.36
2017-10-11T08:34:23.756Z,1013.34
2017-10-11T08:35:23.516Z,1013.35
2017-10-11T08:36:23.657Z,1013.40
2017-10-11T08:37:23.481Z,1013.41
2017-10-11T08:38:23.673Z,1013.42
2017-10-11T08:39:23.432Z,1013.39
2017-10-11T08:40:23.584Z,1013.35
2017-10-11T08:41:23.383Z,1013.43
2017-10-11T08:42:23.494Z,1013.44
2017-10-11T08:43:23.448Z,1013.32
2017-10-11T08:44:23.507Z,1013.40
2017-10-11T08:45:23.297Z,1013.31
2017-10-11T08:46:23.418Z,1013.35
2017-10-11T08:47:23.252Z,1013.30
2017-10-11T08:48:23.432Z,1013.32
2017-10-11T08:49:23.208Z,1013.32
2017-10-11T08:50:23.343Z,1013.32
2017-10-11T08:51:23.166Z,1013.42
2017-10-11T08:52:23.263Z,1013.25
2017-10-11T08:53:23.116Z,1013.33
2017-10-11T08:54:23.269Z,1013.38
2017-10-11T08:55:23.070Z,1013.34
2017-10-11T08:56:24.204Z,1013.37
2017-10-11T08:57:23.032Z,1013.35
2017-10-11T08:58:23.196Z,1013.36
2017-10-11T08:59:22.980Z,1013.45
2017-10-11T09:00:23.005Z,1013.41
2017-10-11T09:01:22.936Z,1013.33
2017-10-11T09:02:23.016Z,1013.33
2017-10-11T09:03:22.891Z,1013.34
2017-10-11T09:04:22.929Z,1013.38
2017-10-11T09:05:22.851Z,1013.40
2017-10-11T09:06:22.943Z,1013.39
2017-10-11T09:07:22.813Z,1013.36
2017-10-11T09:08:22.853Z,1013.44
2017-10-11T09:09:22.754Z,1013.43
2017-10-11T09:10:22.770Z,1013.35
2017-10-11T09:11:22.711Z,1013.36
2017-10-11T09:12:22.781Z,1013.34
2017-10-11T09:13:22.663Z,1013.42
2017-10-11T09:14:22.690Z,1013.37
2017-10-11T09:15:22.619Z,1013.36
2017-10-11T09:16:22.707Z,1013.43
2017-10-11T09:17:22.572Z,1013.39
2017-10-11T09:18:22.617Z,1013.33
2017-10-11T09:19:22.524Z,1013.38
2017-10-11T09:20:22.632Z,1013.41
2017-10-11T09:21:22.484Z,1013.44
2017-10-11T09:22:22.541Z,1013.45
2017-10-11T09:23:23.470Z,1013.44
2017-10-11T09:24:22.422Z,1013.41
2017-10-11T09:25:22.458Z,1013.38
2017-10-11T09:26:22.373Z,1013.41
2017-10-11T09:27:22.475Z,1013.42
2017-10-11T09:28:22.327Z,1013.43
2017-10-11T09:29:22.386Z,1013.41
2017-10-11T09:30:22.274Z,1013.49
2017-10-11T09:31:22.298Z,1013.46
2017-10-11T09:32:22.229Z,1013.42
2017-10-11T09:33:22.309Z,1013.47
2017-10-11T09:34:22.188Z,1013.47
2017-10-11T09:35:22.226Z,1013.44
2017-10-11T09:36:22.141Z,1013.45
2017-10-11T09:37:22.239Z,1013.45
2017-10-11T09:38:22.099Z,1013.46
2017-10-11T09:39:22.147Z,1013.39
2017-10-11T09:40:22.047Z,1013.42
2017-10-11T09:41:22.163Z,1013.39
2017-10-11T09:42:22.005Z,1013.35
2017-10-11T09:43:22.076Z,1013.37
2017-10-11T09:44:21.956Z,1013.35
2017-10-11T09:45:21.983Z,1013.37
2017-10-11T09:46:21.913Z,1013.35
2017-10-11T09:47:22.001Z,1013.37
2017-10-11T09:48:21.875Z,1013.35
2017-10-11T09:49:21.921Z,1013.33
2017-10-11T09:50:21.826Z,1013.35
2017-10-11T09:51:21.926Z,1013.40
2017-10-11T09:52:21.774Z,1013.40
2017-10-11T09:53:21.835Z,1013.44
2017-10-11T09:54:21.731Z,1013.41
2017-10-11T09:55:21.846Z,1013.44
2017-10-11T09:56:21.683Z,1013.45
2017-10-11T09:57:21.760Z,1013.47
2017-10-11T09:58:21.635Z,1013.51
2017-10-11T09:59:21.778Z,1013.48
2017-10-11T10:00:21.609Z,1013.43
2017-10-11T10:01:21.686Z,1013.44
2017-10-11T10:02:21.556Z,1013.42
2017-10-11T10:03:21.598Z,1013.43
2017-10-11T10:04:21.500Z,1013.42
2017-10-11T10:05:21.612Z,1013.47
2017-10-11T10:06:21.456Z,1013.38
2017-10-11T10:07:21.529Z,1013.41
2017-10-11T10:08:21.405Z,1013.41
2017-10-11T10:09:21.542Z,1013.38
2017-10-11T10:10:21.363Z,1013.41
2017-10-11T10:11:21.454Z,1013.41
2017-10-11T10:12:21.314Z,1013.36
2017-10-11T10:13:21.469Z,1013.37
2017-10-11T10:14:21.272Z,1013.35
2017-10-11T10:15:21.376Z,1013.36
2017-10-11T10:16:21.224Z,1013.33
2017-10-11T10:17:21.292Z,1013.36
2017-10-11T10:18:21.174Z,1013.36
2017-10-11T10:19:21.303Z,1013.37
2017-10-11T10:20:21.193Z,1013.39
2017-10-11T10:21:21.213Z,1013.36
2017-10-11T10:22:21.083Z,1013.37
2017-10-11T10:23:21.237Z,1013.38
2017-10-11T10:24:21.039Z,1013.42
2017-10-11T10:25:21.148Z,1013.43
2017-10-11T10:26:20.995Z,1013.37
2017-10-11T10:27:21.155Z,1013.38
2017-10-11T10:28:20.945Z,1013.36
2017-10-11T10:29:21.067Z,1013.39
2017-10-11T10:30:20.903Z,1013.38
2017-10-11T10:31:20.975Z,1013.40
2017-10-11T10:32:20.853Z,1013.36
2017-10-11T10:33:20.993Z,1013.38
2017-10-11T10:34:20.810Z,1013.43
2017-10-11T10:35:20.929Z,1013.41
2017-10-11T10:36:20.759Z,1013.38
2017-10-11T10:37:20.912Z,1013.39
2017-10-11T10:38:20.717Z,1013.40
2017-10-11T10:39:20.826Z,1013.35
2017-10-11T10:40:20.672Z,1013.36
2017-10-11T10:41:20.853Z,1013.37
2017-10-11T10:42:20.623Z,1013.37
2017-10-11T10:43:20.752Z,1013.39
2017-10-11T10:44:20.575Z,1013.34
2017-10-11T10:45:20.665Z,1013.32
2017-10-11T10:46:20.543Z,1013.34
2017-10-11T10:47:20.683Z,1013.36
2017-10-11T10:48:20.485Z,1013.36
2017-10-11T10:49:20.594Z,1013.31
2017-10-11T10:50:20.437Z,1013.36
2017-10-11T10:51:20.610Z,1013.31
2017-10-11T10:52:20.390Z,1013.32
2017-10-11T10:53:20.518Z,1013.29
2017-10-11T10:54:20.346Z,1013.29
2017-10-11T10:55:20.542Z,1013.32
2017-10-11T10:56:20.302Z,1013.35
2017-10-11T10:57:20.439Z,1013.33
2017-10-11T10:58:20.275Z,1013.38
2017-10-11T10:59:20.370Z,1013.28
2017-10-11T11:00:20.213Z,1013.29
2017-10-11T11:01:20.364Z,1013.32
2017-10-11T11:02:20.171Z,1013.30
2017-10-11T11:03:20.281Z,1013.33
2017-10-11T11:04:20.112Z,1013.26
2017-10-11T11:05:20.292Z,1013.33
2017-10-11T11:06:20.068Z,1013.27
2017-10-11T11:07:20.202Z,1013.32
2017-10-11T11:08:20.030Z,1013.31
2017-10-11T11:09:20.220Z,1013.25
2017-10-11T11:10:19.975Z,1013.26
2017-10-11T11:11:20.122Z,1013.33
2017-10-11T11:12:19.930Z,1013.23
2017-10-11T11:13:21.056Z,1013.28
2017-10-11T11:14:19.892Z,1013.23
2017-10-11T11:15:21.070Z,1013.24
2017-10-11T11:16:19.840Z,1013.26
2017-10-11T11:17:19.956Z,1013.25
2017-10-11T11:18:19.799Z,1013.17
2017-10-11T11:19:20.002Z,1013.18
2017-10-11T11:20:19.749Z,1013.21
2017-10-11T11:21:19.885Z,1013.20
2017-10-11T11:22:19.705Z,1013.17
2017-10-11T11:23:19.915Z,1013.22
2017-10-11T11:24:19.658Z,1013.17
2017-10-11T11:25:19.704Z,1013.18
2017-10-11T11:26:19.607Z,1013.13
2017-10-11T11:27:19.617Z,1013.07
2017-10-11T11:28:19.564Z,1013.11
2017-10-11T11:29:19.629Z,1013.16
2017-10-11T11:30:19.513Z,1013.11
2017-10-11T11:31:19.542Z,1013.13
2017-10-11T11:32:19.469Z,1013.15
2017-10-11T11:33:19.563Z,1013.00
2017-10-11T11:34:19.421Z,1013.04
2017-10-11T11:35:19.468Z,1013.06
2017-10-11T11:36:19.379Z,1012.99
2017-10-11T11:37:19.483Z,1012.97
2017-10-11T11:38:19.330Z,1013.03
2017-10-11T11:39:19.393Z,1013.03
2017-10-11T11:40:19.303Z,1012.96
2017-10-11T11:41:19.307Z,1013.02
2017-10-11T11:42:19.260Z,1013.00
2017-10-11T11:43:19.318Z,1012.97
2017-10-11T11:44:19.197Z,1012.99
2017-10-11T11:45:19.231Z,1012.99
2017-10-11T11:46:19.153Z,1013.00
2017-10-11T11:47:19.246Z,1013.00
2017-10-11T11:48:19.106Z,1013.00
2017-10-11T11:49:19.155Z,1012.98
2017-10-11T11:50:19.056Z,1012.99
2017-10-11T11:51:19.170Z,1012.98
2017-10-11T11:52:19.008Z,1012.99
2017-10-11T11:53:19.081Z,1013.01
2017-10-11T11:54:18.968Z,1012.94
2017-10-11T11:55:18.994Z,1012.97
2017-10-11T11:56:18.919Z,1012.90
2017-10-11T11:57:19.004Z,1012.91
2017-10-11T11:58:18.873Z,1012.91
2017-10-11T11:59:18.920Z,1012.89
2017-10-11T12:00:18.829Z,1012.93
2017-10-11T12:01:18.944Z,1012.91
2017-10-11T12:02:18.782Z,1012.94
2017-10-11T12:03:18.845Z,1012.98
2017-10-11T12:04:18.740Z,1012.94
2017-10-11T12:05:18.757Z,1012.90